sensor_id;sensor_type;location;lat;lon;timestamp;pressure;altitude;pressure_sealevel;temperature;humidity
69836;BME280;57132;51.972;4.450;2023-04-15T00:00:36;100759.53;;;7.72;100.00
69836;BME280;57132;51.972;4.450;2023-04-15T00:03:01;100763.13;;;7.71;100.00
69836;BME280;57132;51.972;4.450;2023-04-15T00:05:29;100759.78;;;7.68;100.00
69836;BME280;57132;51.972;4.450;2023-04-15T00:07:54;100764.25;;;7.67;100.00
69836;BME280;57132;51.972;4.450;2023-04-15T00:10:19;100761.53;;;7.69;100.00
69836;BME280;57132;51.972;4.450;2023-04-15T00:12:45;100759.63;;;7.71;100.00
69836;BME280;57132;51.972;4.450;2023-04-15T00:15:10;100756.22;;;7.69;100.00
69836;BME280;57132;51.972;4.450;2023-04-15T00:17:36;100758.75;;;7.70;100.00
69836;BME280;57132;51.972;4.450;2023-04-15T00:20:03;100755.16;;;7.71;100.00
69836;BME280;57132;51.972;4.450;2023-04-15T00:22:30;100762.38;;;7.69;100.00
69836;BME280;57132;51.972;4.450;2023-04-15T00:24:56;100759.78;;;7.68;100.00
69836;BME280;57132;51.972;4.450;2023-04-15T00:27:21;100762.44;;;7.68;100.00
69836;BME280;57132;51.972;4.450;2023-04-15T00:29:47;100760.75;;;7.67;100.00
69836;BME280;57132;51.972;4.450;2023-04-15T00:32:14;100772.91;;;7.71;100.00
69836;BME280;57132;51.972;4.450;2023-04-15T00:34:40;100767.41;;;7.74;100.00
69836;BME280;57132;51.972;4.450;2023-04-15T00:37:06;100776.53;;;7.84;100.00
69836;BME280;57132;51.972;4.450;2023-04-15T00:39:31;100768.66;;;7.82;100.00
69836;BME280;57132;51.972;4.450;2023-04-15T00:41:57;100772.53;;;7.77;100.00
69836;BME280;57132;51.972;4.450;2023-04-15T00:44:22;100766.63;;;7.72;100.00
69836;BME280;57132;51.972;4.450;2023-04-15T00:46:49;100766.91;;;7.67;100.00
69836;BME280;57132;51.972;4.450;2023-04-15T00:49:15;100761.88;;;7.62;100.00
69836;BME280;57132;51.972;4.450;2023-04-15T00:51:42;100764.44;;;7.64;100.00
69836;BME280;57132;51.972;4.450;2023-04-15T00:54:09;100764.72;;;7.59;100.00
69836;BME280;57132;51.972;4.450;2023-04-15T00:56:36;100763.19;;;7.55;100.00
69836;BME280;57132;51.972;4.450;2023-04-15T00:59:03;100762.44;;;7.53;100.00
69836;BME280;57132;51.972;4.450;2023-04-15T01:01:28;100760.53;;;7.55;100.00
69836;BME280;57132;51.972;4.450;2023-04-15T01:03:55;100760.97;;;7.48;100.00
69836;BME280;57132;51.972;4.450;2023-04-15T01:06:22;100767.63;;;7.41;100.00
69836;BME280;57132;51.972;4.450;2023-04-15T01:08:47;100765.41;;;7.33;100.00
69836;BME280;57132;51.972;4.450;2023-04-15T01:11:13;100770.22;;;7.26;100.00
69836;BME280;57132;51.972;4.450;2023-04-15T01:13:39;100768.59;;;7.24;100.00
69836;BME280;57132;51.972;4.450;2023-04-15T01:16:06;100769.38;;;7.26;100.00
69836;BME280;57132;51.972;4.450;2023-04-15T01:18:33;100767.47;;;7.28;100.00
69836;BME280;57132;51.972;4.450;2023-04-15T01:21:00;100771.25;;;7.24;100.00
69836;BME280;57132;51.972;4.450;2023-04-15T01:23:28;100764.41;;;7.20;100.00
69836;BME280;57132;51.972;4.450;2023-04-15T01:25:55;100772.63;;;7.15;100.00
69836;BME280;57132;51.972;4.450;2023-04-15T01:28:20;100764.09;;;7.10;100.00
69836;BME280;57132;51.972;4.450;2023-04-15T01:30:46;100769.22;;;7.13;100.00
69836;BME280;57132;51.972;4.450;2023-04-15T01:33:12;100765.09;;;7.07;100.00
69836;BME280;57132;51.972;4.450;2023-04-15T01:35:37;100761.94;;;7.01;100.00
69836;BME280;57132;51.972;4.450;2023-04-15T01:38:05;100766.66;;;6.96;100.00
69836;BME280;57132;51.972;4.450;2023-04-15T01:40:32;100763.31;;;6.92;100.00
69836;BME280;57132;51.972;4.450;2023-04-15T01:42:58;100767.09;;;6.88;100.00
69836;BME280;57132;51.972;4.450;2023-04-15T01:45:24;100768.38;;;6.81;100.00
69836;BME280;57132;51.972;4.450;2023-04-15T01:47:49;100771.28;;;6.76;100.00
69836;BME280;57132;51.972;4.450;2023-04-15T01:50:15;100773.19;;;6.74;100.00
69836;BME280;57132;51.972;4.450;2023-04-15T01:52:40;100775.91;;;6.73;100.00
69836;BME280;57132;51.972;4.450;2023-04-15T01:55:08;100773.34;;;6.71;100.00
69836;BME280;57132;51.972;4.450;2023-04-15T01:57:33;100775.31;;;6.68;100.00
69836;BME280;57132;51.972;4.450;2023-04-15T01:59:59;100774.22;;;6.72;100.00
69836;BME280;57132;51.972;4.450;2023-04-15T02:02:24;100783.53;;;6.79;100.00
69836;BME280;57132;51.972;4.450;2023-04-15T02:04:49;100781.47;;;6.84;100.00
69836;BME280;57132;51.972;4.450;2023-04-15T02:07:15;100777.13;;;6.83;100.00
69836;BME280;57132;51.972;4.450;2023-04-15T02:09:40;100779.94;;;6.80;100.00
69836;BME280;57132;51.972;4.450;2023-04-15T02:12:05;100782.00;;;6.75;100.00
69836;BME280;57132;51.972;4.450;2023-04-15T02:14:31;100783.13;;;6.71;100.00
69836;BME280;57132;51.972;4.450;2023-04-15T02:16:56;100785.75;;;6.71;100.00
69836;BME280;57132;51.972;4.450;2023-04-15T02:19:22;100780.72;;;6.66;100.00
69836;BME280;57132;51.972;4.450;2023-04-15T02:21:47;100780.78;;;6.64;100.00
69836;BME280;57132;51.972;4.450;2023-04-15T02:24:12;100788.25;;;6.58;100.00
69836;BME280;57132;51.972;4.450;2023-04-15T02:26:38;100786.72;;;6.54;100.00
69836;BME280;57132;51.972;4.450;2023-04-15T02:29:03;100782.41;;;6.51;100.00
69836;BME280;57132;51.972;4.450;2023-04-15T02:31:30;100786.78;;;6.52;100.00
69836;BME280;57132;51.972;4.450;2023-04-15T02:34:00;100784.13;;;6.52;100.00
69836;BME280;57132;51.972;4.450;2023-04-15T02:36:28;100785.84;;;6.53;100.00
69836;BME280;57132;51.972;4.450;2023-04-15T02:38:54;100794.41;;;6.58;100.00
69836;BME280;57132;51.972;4.450;2023-04-15T02:41:20;100796.97;;;6.60;100.00
69836;BME280;57132;51.972;4.450;2023-04-15T02:43:49;100796.19;;;6.58;100.00
69836;BME280;57132;51.972;4.450;2023-04-15T02:46:15;100796.38;;;6.55;100.00
69836;BME280;57132;51.972;4.450;2023-04-15T02:48:40;100804.31;;;6.55;100.00
69836;BME280;57132;51.972;4.450;2023-04-15T02:51:16;100804.91;;;6.60;100.00
69836;BME280;57132;51.972;4.450;2023-04-15T02:53:43;100805.59;;;6.63;100.00
69836;BME280;57132;51.972;4.450;2023-04-15T02:56:09;100820.94;;;6.58;100.00
69836;BME280;57132;51.972;4.450;2023-04-15T02:58:35;100823.84;;;6.54;100.00
69836;BME280;57132;51.972;4.450;2023-04-15T03:01:00;100822.97;;;6.53;100.00
69836;BME280;57132;51.972;4.450;2023-04-15T03:03:26;100828.94;;;6.57;100.00
69836;BME280;57132;51.972;4.450;2023-04-15T03:05:52;100829.13;;;6.54;100.00
69836;BME280;57132;51.972;4.450;2023-04-15T03:08:18;100828.59;;;6.47;100.00
69836;BME280;57132;51.972;4.450;2023-04-15T03:10:45;100835.09;;;6.42;100.00
69836;BME280;57132;51.972;4.450;2023-04-15T03:13:10;100835.16;;;6.40;100.00
69836;BME280;57132;51.972;4.450;2023-04-15T03:15:36;100835.56;;;6.32;100.00
69836;BME280;57132;51.972;4.450;2023-04-15T03:18:01;100839.56;;;6.24;100.00
69836;BME280;57132;51.972;4.450;2023-04-15T03:20:26;100844.41;;;6.15;100.00
69836;BME280;57132;51.972;4.450;2023-04-15T03:22:52;100848.16;;;6.11;100.00
69836;BME280;57132;51.972;4.450;2023-04-15T03:25:17;100850.22;;;6.06;100.00
69836;BME280;57132;51.972;4.450;2023-04-15T03:27:43;100847.94;;;5.99;100.00
69836;BME280;57132;51.972;4.450;2023-04-15T03:30:08;100841.88;;;5.97;100.00
69836;BME280;57132;51.972;4.450;2023-04-15T03:32:34;100854.41;;;5.93;100.00
69836;BME280;57132;51.972;4.450;2023-04-15T03:34:59;100858.00;;;5.92;100.00
69836;BME280;57132;51.972;4.450;2023-04-15T03:37:24;100859.69;;;5.93;100.00
69836;BME280;57132;51.972;4.450;2023-04-15T03:39:50;100866.84;;;5.91;100.00
69836;BME280;57132;51.972;4.450;2023-04-15T03:42:16;100861.56;;;5.91;100.00
69836;BME280;57132;51.972;4.450;2023-04-15T03:44:42;100867.00;;;5.88;100.00
69836;BME280;57132;51.972;4.450;2023-04-15T03:47:07;100866.53;;;5.80;100.00
69836;BME280;57132;51.972;4.450;2023-04-15T03:49:32;100877.44;;;5.74;100.00
69836;BME280;57132;51.972;4.450;2023-04-15T03:51:58;100878.50;;;5.70;100.00
69836;BME280;57132;51.972;4.450;2023-04-15T03:54:24;100885.59;;;5.69;100.00
69836;BME280;57132;51.972;4.450;2023-04-15T03:56:49;100876.97;;;5.65;100.00
69836;BME280;57132;51.972;4.450;2023-04-15T03:59:15;100890.38;;;5.62;100.00
69836;BME280;57132;51.972;4.450;2023-04-15T04:01:40;100887.72;;;5.62;100.00
69836;BME280;57132;51.972;4.450;2023-04-15T04:04:06;100883.50;;;5.58;100.00
69836;BME280;57132;51.972;4.450;2023-04-15T04:06:31;100895.16;;;5.54;100.00
69836;BME280;57132;51.972;4.450;2023-04-15T04:08:57;100890.09;;;5.50;100.00
69836;BME280;57132;51.972;4.450;2023-04-15T04:11:23;100898.25;;;5.45;100.00
69836;BME280;57132;51.972;4.450;2023-04-15T04:13:48;100898.50;;;5.40;100.00
69836;BME280;57132;51.972;4.450;2023-04-15T04:16:14;100902.09;;;5.39;100.00
69836;BME280;57132;51.972;4.450;2023-04-15T04:18:41;100902.13;;;5.38;100.00
69836;BME280;57132;51.972;4.450;2023-04-15T04:21:06;100904.88;;;5.36;100.00
69836;BME280;57132;51.972;4.450;2023-04-15T04:23:32;100909.22;;;5.37;100.00
69836;BME280;57132;51.972;4.450;2023-04-15T04:25:57;100918.25;;;5.33;100.00
69836;BME280;57132;51.972;4.450;2023-04-15T04:28:22;100918.31;;;5.32;100.00
69836;BME280;57132;51.972;4.450;2023-04-15T04:30:48;100920.03;;;5.33;100.00
69836;BME280;57132;51.972;4.450;2023-04-15T04:33:13;100920.25;;;5.28;100.00
69836;BME280;57132;51.972;4.450;2023-04-15T04:35:38;100922.81;;;5.30;100.00
69836;BME280;57132;51.972;4.450;2023-04-15T04:38:04;100930.94;;;5.27;100.00
69836;BME280;57132;51.972;4.450;2023-04-15T04:40:30;100933.56;;;5.27;100.00
69836;BME280;57132;51.972;4.450;2023-04-15T04:42:55;100943.28;;;5.26;100.00
69836;BME280;57132;51.972;4.450;2023-04-15T04:45:20;100941.56;;;5.25;100.00
69836;BME280;57132;51.972;4.450;2023-04-15T04:47:46;100951.16;;;5.28;100.00
69836;BME280;57132;51.972;4.450;2023-04-15T04:50:12;100952.78;;;5.30;100.00
69836;BME280;57132;51.972;4.450;2023-04-15T04:52:37;100959.88;;;5.30;100.00
69836;BME280;57132;51.972;4.450;2023-04-15T04:55:03;100963.31;;;5.32;100.00
69836;BME280;57132;51.972;4.450;2023-04-15T04:57:29;100968.63;;;5.32;100.00
69836;BME280;57132;51.972;4.450;2023-04-15T04:59:54;100965.88;;;5.33;100.00
69836;BME280;57132;51.972;4.450;2023-04-15T05:02:19;100977.19;;;5.37;100.00
69836;BME280;57132;51.972;4.450;2023-04-15T05:04:45;100976.25;;;5.38;100.00
69836;BME280;57132;51.972;4.450;2023-04-15T05:07:10;100987.56;;;5.41;100.00
69836;BME280;57132;51.972;4.450;2023-04-15T05:09:36;100989.63;;;5.54;100.00
69836;BME280;57132;51.972;4.450;2023-04-15T05:12:03;100997.41;;;5.57;100.00
69836;BME280;57132;51.972;4.450;2023-04-15T05:14:29;101002.84;;;5.54;100.00
69836;BME280;57132;51.972;4.450;2023-04-15T05:16:54;100998.28;;;5.57;100.00
69836;BME280;57132;51.972;4.450;2023-04-15T05:19:20;101003.53;;;5.59;100.00
69836;BME280;57132;51.972;4.450;2023-04-15T05:21:45;101011.38;;;5.60;100.00
69836;BME280;57132;51.972;4.450;2023-04-15T05:24:10;101018.25;;;5.64;100.00
69836;BME280;57132;51.972;4.450;2023-04-15T05:26:36;101021.53;;;5.70;100.00
69836;BME280;57132;51.972;4.450;2023-04-15T05:29:01;101029.06;;;5.79;100.00
69836;BME280;57132;51.972;4.450;2023-04-15T05:31:26;101033.19;;;5.84;100.00
69836;BME280;57132;51.972;4.450;2023-04-15T05:33:52;101045.28;;;5.90;100.00
69836;BME280;57132;51.972;4.450;2023-04-15T05:36:17;101044.06;;;5.97;100.00
69836;BME280;57132;51.972;4.450;2023-04-15T05:38:43;101048.09;;;6.06;100.00
69836;BME280;57132;51.972;4.450;2023-04-15T05:41:08;101058.28;;;6.13;100.00
69836;BME280;57132;51.972;4.450;2023-04-15T05:43:33;101055.06;;;6.26;100.00
69836;BME280;57132;51.972;4.450;2023-04-15T05:45:58;101062.69;;;6.32;100.00
69836;BME280;57132;51.972;4.450;2023-04-15T05:48:24;101070.28;;;6.39;100.00
69836;BME280;57132;51.972;4.450;2023-04-15T05:50:49;101083.16;;;6.47;100.00
69836;BME280;57132;51.972;4.450;2023-04-15T05:53:15;101080.25;;;6.52;100.00
69836;BME280;57132;51.972;4.450;2023-04-15T05:55:40;101088.69;;;6.60;100.00
69836;BME280;57132;51.972;4.450;2023-04-15T05:58:07;101094.22;;;6.73;100.00
69836;BME280;57132;51.972;4.450;2023-04-15T06:00:32;101102.66;;;6.81;100.00
69836;BME280;57132;51.972;4.450;2023-04-15T06:02:57;101101.25;;;6.91;100.00
69836;BME280;57132;51.972;4.450;2023-04-15T06:05:23;101112.03;;;7.05;100.00
69836;BME280;57132;51.972;4.450;2023-04-15T06:07:49;101116.56;;;7.21;100.00
69836;BME280;57132;51.972;4.450;2023-04-15T06:10:14;101117.16;;;7.26;100.00
69836;BME280;57132;51.972;4.450;2023-04-15T06:12:40;101127.44;;;7.32;100.00
69836;BME280;57132;51.972;4.450;2023-04-15T06:15:06;101131.19;;;7.45;100.00
69836;BME280;57132;51.972;4.450;2023-04-15T06:17:33;101140.38;;;7.55;100.00
69836;BME280;57132;51.972;4.450;2023-04-15T06:19:59;101149.16;;;7.73;100.00
69836;BME280;57132;51.972;4.450;2023-04-15T06:22:24;101145.06;;;8.31;100.00
69836;BME280;57132;51.972;4.450;2023-04-15T06:24:50;101160.50;;;10.18;100.00
69836;BME280;57132;51.972;4.450;2023-04-15T06:27:16;101165.78;;;12.76;100.00
69836;BME280;57132;51.972;4.450;2023-04-15T06:29:42;101166.41;;;14.83;86.83
69836;BME280;57132;51.972;4.450;2023-04-15T06:32:07;101173.31;;;16.52;69.70
69836;BME280;57132;51.972;4.450;2023-04-15T06:34:32;101178.09;;;17.74;59.69
69836;BME280;57132;51.972;4.450;2023-04-15T06:36:58;101182.09;;;18.62;55.08
69836;BME280;57132;51.972;4.450;2023-04-15T06:39:23;101183.50;;;18.66;52.24
69836;BME280;57132;51.972;4.450;2023-04-15T06:41:49;101190.97;;;18.27;51.63
69836;BME280;57132;51.972;4.450;2023-04-15T06:44:14;101186.00;;;19.13;50.42
69836;BME280;57132;51.972;4.450;2023-04-15T06:46:40;101199.91;;;19.80;48.04
69836;BME280;57132;51.972;4.450;2023-04-15T06:49:05;101210.63;;;19.64;47.65
69836;BME280;57132;51.972;4.450;2023-04-15T06:51:30;101203.66;;;19.87;47.30
69836;BME280;57132;51.972;4.450;2023-04-15T06:53:56;101211.78;;;19.87;46.80
69836;BME280;57132;51.972;4.450;2023-04-15T06:56:22;101215.38;;;20.65;44.97
69836;BME280;57132;51.972;4.450;2023-04-15T06:58:47;101207.16;;;20.99;43.96
69836;BME280;57132;51.972;4.450;2023-04-15T07:01:13;101213.94;;;20.95;42.94
69836;BME280;57132;51.972;4.450;2023-04-15T07:03:38;101214.47;;;21.31;41.92
69836;BME280;57132;51.972;4.450;2023-04-15T07:06:03;101225.88;;;21.51;42.19
69836;BME280;57132;51.972;4.450;2023-04-15T07:08:32;101222.09;;;21.27;43.01
69836;BME280;57132;51.972;4.450;2023-04-15T07:10:58;101227.00;;;22.14;41.17
69836;BME280;57132;51.972;4.450;2023-04-15T07:13:23;101220.59;;;22.38;40.61
69836;BME280;57132;51.972;4.450;2023-04-15T07:15:49;101226.13;;;22.21;40.22
69836;BME280;57132;51.972;4.450;2023-04-15T07:18:14;101235.00;;;23.17;38.63
69836;BME280;57132;51.972;4.450;2023-04-15T07:20:40;101234.16;;;23.77;37.21
69836;BME280;57132;51.972;4.450;2023-04-15T07:23:05;101248.53;;;23.86;37.03
69836;BME280;57132;51.972;4.450;2023-04-15T07:25:31;101249.69;;;24.21;36.28
69836;BME280;57132;51.972;4.450;2023-04-15T07:27:56;101257.56;;;23.63;34.90
69836;BME280;57132;51.972;4.450;2023-04-15T07:30:22;101262.66;;;23.28;36.58
69836;BME280;57132;51.972;4.450;2023-04-15T07:32:47;101262.84;;;22.88;37.65
69836;BME280;57132;51.972;4.450;2023-04-15T07:35:13;101268.84;;;23.83;37.27
69836;BME280;57132;51.972;4.450;2023-04-15T07:37:38;101266.81;;;23.39;37.07
69836;BME280;57132;51.972;4.450;2023-04-15T07:40:04;101269.78;;;23.29;37.15
69836;BME280;57132;51.972;4.450;2023-04-15T07:42:32;101276.31;;;22.89;37.28
69836;BME280;57132;51.972;4.450;2023-04-15T07:44:58;101275.28;;;22.90;37.77
69836;BME280;57132;51.972;4.450;2023-04-15T07:47:23;101279.75;;;22.36;38.81
69836;BME280;57132;51.972;4.450;2023-04-15T07:49:48;101282.88;;;22.08;38.80
69836;BME280;57132;51.972;4.450;2023-04-15T07:52:15;101280.53;;;21.72;39.90
69836;BME280;57132;51.972;4.450;2023-04-15T07:54:41;101292.41;;;21.88;40.51
69836;BME280;57132;51.972;4.450;2023-04-15T07:57:06;101294.81;;;21.58;41.80
69836;BME280;57132;51.972;4.450;2023-04-15T07:59:32;101303.09;;;21.97;41.06
69836;BME280;57132;51.972;4.450;2023-04-15T08:01:57;101302.13;;;21.82;41.99
69836;BME280;57132;51.972;4.450;2023-04-15T08:04:23;101309.16;;;21.26;41.66
69836;BME280;57132;51.972;4.450;2023-04-15T08:06:48;101319.41;;;21.40;42.40
69836;BME280;57132;51.972;4.450;2023-04-15T08:09:14;101323.50;;;21.02;43.34
69836;BME280;57132;51.972;4.450;2023-04-15T08:11:40;101329.28;;;20.99;42.53
69836;BME280;57132;51.972;4.450;2023-04-15T08:14:05;101324.00;;;21.64;42.33
69836;BME280;57132;51.972;4.450;2023-04-15T08:16:31;101334.34;;;22.34;40.66
69836;BME280;57132;51.972;4.450;2023-04-15T08:18:56;101338.09;;;22.08;41.14
69836;BME280;57132;51.972;4.450;2023-04-15T08:21:22;101339.09;;;22.07;41.78
69836;BME280;57132;51.972;4.450;2023-04-15T08:23:48;101341.66;;;21.84;41.25
69836;BME280;57132;51.972;4.450;2023-04-15T08:26:16;101349.31;;;22.05;42.57
69836;BME280;57132;51.972;4.450;2023-04-15T08:28:43;101351.16;;;21.48;43.28
69836;BME280;57132;51.972;4.450;2023-04-15T08:31:08;101358.81;;;21.02;44.01
69836;BME280;57132;51.972;4.450;2023-04-15T08:33:34;101362.22;;;21.54;43.98
69836;BME280;57132;51.972;4.450;2023-04-15T08:35:59;101360.88;;;21.75;43.29
69836;BME280;57132;51.972;4.450;2023-04-15T08:38:25;101364.97;;;21.20;43.41
69836;BME280;57132;51.972;4.450;2023-04-15T08:40:50;101365.47;;;20.47;44.95
69836;BME280;57132;51.972;4.450;2023-04-15T08:43:38;101372.53;;;20.66;45.05
69836;BME280;57132;51.972;4.450;2023-04-15T08:46:08;101375.41;;;20.38;46.05
69836;BME280;57132;51.972;4.450;2023-04-15T08:48:36;101380.38;;;20.69;46.26
69836;BME280;57132;51.972;4.450;2023-04-15T08:51:03;101381.16;;;20.35;45.70
69836;BME280;57132;51.972;4.450;2023-04-15T08:53:28;101384.56;;;19.94;47.34
69836;BME280;57132;51.972;4.450;2023-04-15T08:55:56;101399.19;;;21.47;44.32
69836;BME280;57132;51.972;4.450;2023-04-15T08:58:22;101399.66;;;22.18;41.04
69836;BME280;57132;51.972;4.450;2023-04-15T09:00:48;101405.13;;;22.81;39.43
69836;BME280;57132;51.972;4.450;2023-04-15T09:03:15;101406.25;;;22.31;40.41
69836;BME280;57132;51.972;4.450;2023-04-15T09:05:42;101414.75;;;22.28;40.44
69836;BME280;57132;51.972;4.450;2023-04-15T09:08:08;101414.91;;;20.59;43.46
69836;BME280;57132;51.972;4.450;2023-04-15T09:10:33;101414.13;;;19.87;43.83
69836;BME280;57132;51.972;4.450;2023-04-15T09:13:00;101415.91;;;20.14;44.59
69836;BME280;57132;51.972;4.450;2023-04-15T09:15:26;101422.53;;;21.24;42.75
69836;BME280;57132;51.972;4.450;2023-04-15T09:17:52;101418.13;;;22.06;40.85
69836;BME280;57132;51.972;4.450;2023-04-15T09:20:17;101429.03;;;22.39;39.48
69836;BME280;57132;51.972;4.450;2023-04-15T09:22:44;101426.66;;;21.36;39.11
69836;BME280;57132;51.972;4.450;2023-04-15T09:27:57;101434.09;;;19.86;41.59
69836;BME280;57132;51.972;4.450;2023-04-15T09:30:23;101440.69;;;18.54;45.25
69836;BME280;57132;51.972;4.450;2023-04-15T09:32:53;101453.66;;;19.07;43.63
69836;BME280;57132;51.972;4.450;2023-04-15T09:35:20;101454.91;;;19.12;44.99
69836;BME280;57132;51.972;4.450;2023-04-15T09:37:46;101454.31;;;19.46;42.97
69836;BME280;57132;51.972;4.450;2023-04-15T09:40:12;101458.47;;;19.40;43.28
69836;BME280;57132;51.972;4.450;2023-04-15T09:42:58;101456.25;;;19.99;43.17
69836;BME280;57132;51.972;4.450;2023-04-15T09:45:24;101467.00;;;20.09;39.00
69836;BME280;57132;51.972;4.450;2023-04-15T09:47:51;101470.75;;;20.70;39.98
69836;BME280;57132;51.972;4.450;2023-04-15T09:50:18;101475.03;;;21.06;37.99
69836;BME280;57132;51.972;4.450;2023-04-15T09:52:46;101466.25;;;20.86;38.87
69836;BME280;57132;51.972;4.450;2023-04-15T09:55:12;101477.41;;;21.78;38.02
69836;BME280;57132;51.972;4.450;2023-04-15T09:57:41;101488.66;;;21.49;36.68
69836;BME280;57132;51.972;4.450;2023-04-15T10:00:08;101481.91;;;21.19;36.26
69836;BME280;57132;51.972;4.450;2023-04-15T10:02:36;101487.56;;;20.73;37.67
69836;BME280;57132;51.972;4.450;2023-04-15T10:05:02;101485.88;;;20.72;38.86
69836;BME280;57132;51.972;4.450;2023-04-15T10:07:35;101491.88;;;21.18;37.37
69836;BME280;57132;51.972;4.450;2023-04-15T10:10:00;101493.31;;;20.96;38.75
69836;BME280;57132;51.972;4.450;2023-04-15T10:12:31;101492.25;;;20.09;40.36
69836;BME280;57132;51.972;4.450;2023-04-15T10:14:59;101489.38;;;20.65;38.03
69836;BME280;57132;51.972;4.450;2023-04-15T10:17:29;101487.91;;;20.34;38.90
69836;BME280;57132;51.972;4.450;2023-04-15T10:20:00;101501.69;;;20.23;38.42
69836;BME280;57132;51.972;4.450;2023-04-15T10:22:27;101503.31;;;20.34;39.43
69836;BME280;57132;51.972;4.450;2023-04-15T10:24:53;101490.00;;;19.59;40.51
69836;BME280;57132;51.972;4.450;2023-04-15T10:27:20;101499.50;;;19.46;41.02
69836;BME280;57132;51.972;4.450;2023-04-15T10:29:47;101508.03;;;19.78;39.38
69836;BME280;57132;51.972;4.450;2023-04-15T10:32:13;101511.84;;;19.85;40.37
69836;BME280;57132;51.972;4.450;2023-04-15T10:34:40;101503.84;;;18.82;41.08
69836;BME280;57132;51.972;4.450;2023-04-15T10:37:08;101509.00;;;18.65;42.00
69836;BME280;57132;51.972;4.450;2023-04-15T10:42:18;101522.13;;;19.82;39.32
69836;BME280;57132;51.972;4.450;2023-04-15T10:44:47;101512.69;;;18.74;40.92
69836;BME280;57132;51.972;4.450;2023-04-15T10:47:15;101511.28;;;18.12;40.38
69836;BME280;57132;51.972;4.450;2023-04-15T10:49:48;101518.69;;;18.10;43.75
69836;BME280;57132;51.972;4.450;2023-04-15T10:52:15;101520.91;;;19.94;39.67
69836;BME280;57132;51.972;4.450;2023-04-15T10:54:41;101527.75;;;21.56;37.61
69836;BME280;57132;51.972;4.450;2023-04-15T10:57:13;101535.09;;;21.64;35.88
69836;BME280;57132;51.972;4.450;2023-04-15T11:08:10;101544.59;;;20.10;39.13
69836;BME280;57132;51.972;4.450;2023-04-15T11:13:03;101536.84;;;19.05;41.33
69836;BME280;57132;51.972;4.450;2023-04-15T11:15:42;101544.06;;;19.14;42.28
69836;BME280;57132;51.972;4.450;2023-04-15T11:18:20;101549.16;;;18.70;44.28
69836;BME280;57132;51.972;4.450;2023-04-15T11:23:26;101541.44;;;18.46;43.45
69836;BME280;57132;51.972;4.450;2023-04-15T11:25:54;101558.78;;;18.24;43.10
69836;BME280;57132;51.972;4.450;2023-04-15T11:28:30;101558.19;;;17.30;46.57
69836;BME280;57132;51.972;4.450;2023-04-15T11:30:56;101556.25;;;18.71;45.36
69836;BME280;57132;51.972;4.450;2023-04-15T11:33:25;101566.44;;;20.26;41.81
69836;BME280;57132;51.972;4.450;2023-04-15T11:35:52;101560.19;;;19.43;42.75
69836;BME280;57132;51.972;4.450;2023-04-15T11:38:21;101558.34;;;19.44;41.70
69836;BME280;57132;51.972;4.450;2023-04-15T11:40:47;101573.44;;;17.72;44.71
69836;BME280;57132;51.972;4.450;2023-04-15T11:43:20;101574.34;;;17.20;48.20
69836;BME280;57132;51.972;4.450;2023-04-15T11:45:57;101573.72;;;18.28;44.64
69836;BME280;57132;51.972;4.450;2023-04-15T11:48:28;101586.81;;;19.48;41.16
69836;BME280;57132;51.972;4.450;2023-04-15T11:51:04;101590.84;;;18.77;42.15
69836;BME280;57132;51.972;4.450;2023-04-15T11:53:49;101585.91;;;17.63;44.75
69836;BME280;57132;51.972;4.450;2023-04-15T11:56:25;101578.72;;;17.42;47.18
69836;BME280;57132;51.972;4.450;2023-04-15T11:58:55;101583.84;;;17.76;47.41
69836;BME280;57132;51.972;4.450;2023-04-15T12:01:33;101590.56;;;17.51;48.06
69836;BME280;57132;51.972;4.450;2023-04-15T12:04:17;101590.41;;;19.01;46.71
69836;BME280;57132;51.972;4.450;2023-04-15T12:06:47;101588.78;;;19.65;44.57
69836;BME280;57132;51.972;4.450;2023-04-15T12:09:24;101585.38;;;19.06;45.29
69836;BME280;57132;51.972;4.450;2023-04-15T12:11:51;101598.84;;;18.00;44.10
69836;BME280;57132;51.972;4.450;2023-04-15T12:14:31;101597.50;;;17.23;45.85
69836;BME280;57132;51.972;4.450;2023-04-15T12:16:59;101589.69;;;17.20;48.40
69836;BME280;57132;51.972;4.450;2023-04-15T12:19:27;101598.38;;;17.03;51.08
69836;BME280;57132;51.972;4.450;2023-04-15T12:22:09;101611.72;;;16.08;51.83
69836;BME280;57132;51.972;4.450;2023-04-15T12:24:36;101604.97;;;15.23;56.67
69836;BME280;57132;51.972;4.450;2023-04-15T12:27:08;101610.94;;;15.16;66.28
69836;BME280;57132;51.972;4.450;2023-04-15T12:29:37;101608.25;;;15.16;71.98
69836;BME280;57132;51.972;4.450;2023-04-15T12:32:10;101613.97;;;15.11;71.69
69836;BME280;57132;51.972;4.450;2023-04-15T12:34:37;101617.22;;;14.92;74.79
69836;BME280;57132;51.972;4.450;2023-04-15T12:37:04;101623.91;;;14.51;73.66
69836;BME280;57132;51.972;4.450;2023-04-15T12:39:34;101625.50;;;14.30;76.72
69836;BME280;57132;51.972;4.450;2023-04-15T12:42:00;101630.66;;;14.20;77.04
69836;BME280;57132;51.972;4.450;2023-04-15T12:44:26;101626.59;;;14.75;75.99
69836;BME280;57132;51.972;4.450;2023-04-15T12:46:52;101634.84;;;14.48;75.61
69836;BME280;57132;51.972;4.450;2023-04-15T12:49:19;101636.25;;;14.30;75.15
69836;BME280;57132;51.972;4.450;2023-04-15T12:51:49;101641.75;;;14.52;76.89
69836;BME280;57132;51.972;4.450;2023-04-15T12:54:16;101648.09;;;14.51;75.87
69836;BME280;57132;51.972;4.450;2023-04-15T12:56:42;101651.06;;;14.60;81.27
69836;BME280;57132;51.972;4.450;2023-04-15T12:59:07;101656.47;;;14.47;78.63
69836;BME280;57132;51.972;4.450;2023-04-15T13:01:33;101658.09;;;14.13;79.08
69836;BME280;57132;51.972;4.450;2023-04-15T13:03:58;101663.22;;;14.16;78.22
69836;BME280;57132;51.972;4.450;2023-04-15T13:06:23;101659.78;;;14.26;80.10